sensor_id;sensor_type;location;lat;lon;timestamp;temperature;humidity
47961;DHT22;33721;48.852;9.936;2022-09-09T00:06:43;12.30;99.90
47961;DHT22;33721;48.852;9.936;2022-09-09T00:09:14;12.30;99.90
47961;DHT22;33721;48.852;9.936;2022-09-09T00:11:46;12.20;99.90
47961;DHT22;33721;48.852;9.936;2022-09-09T00:14:47;12.10;99.90
47961;DHT22;33721;48.852;9.936;2022-09-09T00:22:29;12.00;99.90
47961;DHT22;33721;48.852;9.936;2022-09-09T00:25:08;12.10;99.90
47961;DHT22;33721;48.852;9.936;2022-09-09T00:27:49;12.00;99.90
47961;DHT22;33721;48.852;9.936;2022-09-09T00:32:54;12.00;99.90
47961;DHT22;33721;48.852;9.936;2022-09-09T00:35:32;12.10;99.90
47961;DHT22;33721;48.852;9.936;2022-09-09T00:40:48;12.10;99.90
47961;DHT22;33721;48.852;9.936;2022-09-09T00:43:36;12.10;99.90
47961;DHT22;33721;48.852;9.936;2022-09-09T00:46:38;12.10;99.90
47961;DHT22;33721;48.852;9.936;2022-09-09T00:49:51;12.20;99.90
47961;DHT22;33721;48.852;9.936;2022-09-09T00:57:35;12.10;99.90
47961;DHT22;33721;48.852;9.936;2022-09-09T01:00:35;12.00;99.90
47961;DHT22;33721;48.852;9.936;2022-09-09T01:03:36;12.00;99.90
47961;DHT22;33721;48.852;9.936;2022-09-09T01:08:48;11.90;99.90
47961;DHT22;33721;48.852;9.936;2022-09-09T01:11:26;11.90;99.90
47961;DHT22;33721;48.852;9.936;2022-09-09T01:14:05;11.90;99.90
47961;DHT22;33721;48.852;9.936;2022-09-09T01:16:35;11.90;99.90
47961;DHT22;33721;48.852;9.936;2022-09-09T01:19:02;11.80;99.90
47961;DHT22;33721;48.852;9.936;2022-09-09T01:22:13;11.90;99.90
47961;DHT22;33721;48.852;9.936;2022-09-09T01:24:43;11.80;99.90
47961;DHT22;33721;48.852;9.936;2022-09-09T01:27:10;11.90;99.90
47961;DHT22;33721;48.852;9.936;2022-09-09T01:29:37;11.90;99.90
47961;DHT22;33721;48.852;9.936;2022-09-09T01:37:54;12.10;99.90
47961;DHT22;33721;48.852;9.936;2022-09-09T01:40:20;12.10;99.90
47961;DHT22;33721;48.852;9.936;2022-09-09T01:42:45;12.10;99.90
47961;DHT22;33721;48.852;9.936;2022-09-09T01:45:11;12.10;99.90
47961;DHT22;33721;48.852;9.936;2022-09-09T01:47:37;12.00;99.90
47961;DHT22;33721;48.852;9.936;2022-09-09T01:50:03;12.10;99.90
47961;DHT22;33721;48.852;9.936;2022-09-09T01:52:30;12.10;99.90
47961;DHT22;33721;48.852;9.936;2022-09-09T01:54:59;12.10;99.90
47961;DHT22;33721;48.852;9.936;2022-09-09T01:57:28;12.10;99.90
47961;DHT22;33721;48.852;9.936;2022-09-09T02:00:05;12.10;99.90
47961;DHT22;33721;48.852;9.936;2022-09-09T02:08:53;12.00;99.90
47961;DHT22;33721;48.852;9.936;2022-09-09T02:11:22;11.90;99.90
47961;DHT22;33721;48.852;9.936;2022-09-09T02:13:52;11.80;99.90
47961;DHT22;33721;48.852;9.936;2022-09-09T02:16:33;11.80;99.90
47961;DHT22;33721;48.852;9.936;2022-09-09T02:19:11;11.80;99.90
47961;DHT22;33721;48.852;9.936;2022-09-09T02:21:39;11.80;99.90
47961;DHT22;33721;48.852;9.936;2022-09-09T02:24:08;11.80;99.90
47961;DHT22;33721;48.852;9.936;2022-09-09T02:26:39;11.80;99.90
47961;DHT22;33721;48.852;9.936;2022-09-09T02:29:09;11.80;99.90
47961;DHT22;33721;48.852;9.936;2022-09-09T02:31:37;11.70;99.90
47961;DHT22;33721;48.852;9.936;2022-09-09T02:34:05;11.70;99.90
47961;DHT22;33721;48.852;9.936;2022-09-09T02:36:34;11.70;99.90
47961;DHT22;33721;48.852;9.936;2022-09-09T02:39:01;11.60;99.90
47961;DHT22;33721;48.852;9.936;2022-09-09T02:41:32;11.60;99.90
47961;DHT22;33721;48.852;9.936;2022-09-09T02:43:57;11.60;99.90
47961;DHT22;33721;48.852;9.936;2022-09-09T02:49:50;11.60;99.90
47961;DHT22;33721;48.852;9.936;2022-09-09T02:54:58;11.50;99.90
47961;DHT22;33721;48.852;9.936;2022-09-09T02:57:30;11.50;99.90
47961;DHT22;33721;48.852;9.936;2022-09-09T02:59:58;11.50;99.90
47961;DHT22;33721;48.852;9.936;2022-09-09T03:02:24;11.40;99.90
47961;DHT22;33721;48.852;9.936;2022-09-09T03:04:50;11.40;99.90
47961;DHT22;33721;48.852;9.936;2022-09-09T03:07:18;11.50;99.90
47961;DHT22;33721;48.852;9.936;2022-09-09T03:09:44;11.50;99.90
47961;DHT22;33721;48.852;9.936;2022-09-09T03:12:10;11.50;99.90
47961;DHT22;33721;48.852;9.936;2022-09-09T03:14:37;11.60;99.90
47961;DHT22;33721;48.852;9.936;2022-09-09T03:17:04;11.60;99.90
47961;DHT22;33721;48.852;9.936;2022-09-09T03:19:30;11.60;99.90
47961;DHT22;33721;48.852;9.936;2022-09-09T03:21:57;11.70;99.90
47961;DHT22;33721;48.852;9.936;2022-09-09T03:24:24;11.60;99.90
47961;DHT22;33721;48.852;9.936;2022-09-09T03:26:50;11.60;99.90
47961;DHT22;33721;48.852;9.936;2022-09-09T03:29:16;11.50;99.90
47961;DHT22;33721;48.852;9.936;2022-09-09T03:31:42;11.40;99.90
47961;DHT22;33721;48.852;9.936;2022-09-09T03:34:08;11.40;99.90
47961;DHT22;33721;48.852;9.936;2022-09-09T03:36:34;11.40;99.90
47961;DHT22;33721;48.852;9.936;2022-09-09T03:39:00;11.40;99.90
47961;DHT22;33721;48.852;9.936;2022-09-09T03:41:26;11.40;99.90
47961;DHT22;33721;48.852;9.936;2022-09-09T03:43:53;11.30;99.90
47961;DHT22;33721;48.852;9.936;2022-09-09T03:46:23;11.30;99.90
47961;DHT22;33721;48.852;9.936;2022-09-09T03:48:49;11.40;99.90
47961;DHT22;33721;48.852;9.936;2022-09-09T03:51:15;11.40;99.90
47961;DHT22;33721;48.852;9.936;2022-09-09T03:53:41;11.30;99.90
47961;DHT22;33721;48.852;9.936;2022-09-09T03:56:08;11.30;99.90
47961;DHT22;33721;48.852;9.936;2022-09-09T03:58:35;11.30;99.90
47961;DHT22;33721;48.852;9.936;2022-09-09T04:01:14;11.20;99.90
47961;DHT22;33721;48.852;9.936;2022-09-09T04:03:42;11.20;99.90
47961;DHT22;33721;48.852;9.936;2022-09-09T04:06:10;11.20;99.90
47961;DHT22;33721;48.852;9.936;2022-09-09T04:08:37;11.20;99.90
47961;DHT22;33721;48.852;9.936;2022-09-09T04:11:04;11.20;99.90
47961;DHT22;33721;48.852;9.936;2022-09-09T04:13:35;11.20;99.90
47961;DHT22;33721;48.852;9.936;2022-09-09T04:16:03;11.30;99.90
47961;DHT22;33721;48.852;9.936;2022-09-09T04:18:29;11.50;99.90
47961;DHT22;33721;48.852;9.936;2022-09-09T04:20:55;11.60;99.90
47961;DHT22;33721;48.852;9.936;2022-09-09T04:23:24;11.70;99.90
47961;DHT22;33721;48.852;9.936;2022-09-09T04:25:52;11.80;99.90
47961;DHT22;33721;48.852;9.936;2022-09-09T04:28:20;11.80;99.90
47961;DHT22;33721;48.852;9.936;2022-09-09T04:30:47;11.80;99.90
47961;DHT22;33721;48.852;9.936;2022-09-09T04:33:13;11.80;99.90
47961;DHT22;33721;48.852;9.936;2022-09-09T04:35:43;11.70;99.90
47961;DHT22;33721;48.852;9.936;2022-09-09T04:38:09;11.70;99.90
47961;DHT22;33721;48.852;9.936;2022-09-09T04:40:35;11.70;99.90
47961;DHT22;33721;48.852;9.936;2022-09-09T04:43:02;11.70;99.90
47961;DHT22;33721;48.852;9.936;2022-09-09T04:45:31;11.80;99.90
47961;DHT22;33721;48.852;9.936;2022-09-09T04:47:57;11.80;99.90
47961;DHT22;33721;48.852;9.936;2022-09-09T04:50:23;11.80;99.90
47961;DHT22;33721;48.852;9.936;2022-09-09T04:52:48;11.80;99.90
47961;DHT22;33721;48.852;9.936;2022-09-09T04:55:14;11.80;99.90
47961;DHT22;33721;48.852;9.936;2022-09-09T04:57:40;11.90;99.90
47961;DHT22;33721;48.852;9.936;2022-09-09T05:00:06;11.90;99.90
47961;DHT22;33721;48.852;9.936;2022-09-09T05:02:32;12.00;99.90
47961;DHT22;33721;48.852;9.936;2022-09-09T05:04:58;12.10;99.90
47961;DHT22;33721;48.852;9.936;2022-09-09T05:07:24;12.20;99.90
47961;DHT22;33721;48.852;9.936;2022-09-09T05:09:52;12.20;99.90
47961;DHT22;33721;48.852;9.936;2022-09-09T05:12:18;12.10;99.90
47961;DHT22;33721;48.852;9.936;2022-09-09T05:14:44;12.00;99.90
47961;DHT22;33721;48.852;9.936;2022-09-09T05:17:10;11.90;99.90
47961;DHT22;33721;48.852;9.936;2022-09-09T05:19:36;11.90;99.90
47961;DHT22;33721;48.852;9.936;2022-09-09T05:22:02;11.80;99.90
47961;DHT22;33721;48.852;9.936;2022-09-09T05:24:28;11.80;99.90
47961;DHT22;33721;48.852;9.936;2022-09-09T05:26:54;11.90;99.90
47961;DHT22;33721;48.852;9.936;2022-09-09T05:29:23;11.90;99.90
47961;DHT22;33721;48.852;9.936;2022-09-09T05:31:49;11.90;99.90
47961;DHT22;33721;48.852;9.936;2022-09-09T05:34:14;11.80;99.90
47961;DHT22;33721;48.852;9.936;2022-09-09T05:36:40;11.80;99.90
47961;DHT22;33721;48.852;9.936;2022-09-09T05:39:05;11.80;99.90
47961;DHT22;33721;48.852;9.936;2022-09-09T05:41:31;11.80;99.90
47961;DHT22;33721;48.852;9.936;2022-09-09T05:43:57;11.80;99.90
47961;DHT22;33721;48.852;9.936;2022-09-09T05:46:24;11.80;99.90
47961;DHT22;33721;48.852;9.936;2022-09-09T05:48:51;11.90;99.90
47961;DHT22;33721;48.852;9.936;2022-09-09T05:51:23;12.20;99.90
47961;DHT22;33721;48.852;9.936;2022-09-09T05:53:49;12.50;99.90
47961;DHT22;33721;48.852;9.936;2022-09-09T05:56:22;12.70;99.90
47961;DHT22;33721;48.852;9.936;2022-09-09T05:58:49;13.00;99.90
47961;DHT22;33721;48.852;9.936;2022-09-09T06:01:24;13.10;99.90
47961;DHT22;33721;48.852;9.936;2022-09-09T06:03:51;13.30;99.90
47961;DHT22;33721;48.852;9.936;2022-09-09T06:06:19;13.40;99.90
47961;DHT22;33721;48.852;9.936;2022-09-09T06:08:49;13.50;99.90
47961;DHT22;33721;48.852;9.936;2022-09-09T06:11:21;13.60;99.90
47961;DHT22;33721;48.852;9.936;2022-09-09T06:13:48;13.60;99.90
47961;DHT22;33721;48.852;9.936;2022-09-09T06:16:18;13.60;99.90
47961;DHT22;33721;48.852;9.936;2022-09-09T06:18:44;13.60;99.90
47961;DHT22;33721;48.852;9.936;2022-09-09T06:21:18;13.60;99.90
47961;DHT22;33721;48.852;9.936;2022-09-09T06:23:44;13.60;99.90
47961;DHT22;33721;48.852;9.936;2022-09-09T06:26:19;13.60;99.90
47961;DHT22;33721;48.852;9.936;2022-09-09T06:28:47;13.70;99.90
47961;DHT22;33721;48.852;9.936;2022-09-09T06:31:15;13.70;99.90
47961;DHT22;33721;48.852;9.936;2022-09-09T06:33:42;13.80;99.90
47961;DHT22;33721;48.852;9.936;2022-09-09T06:36:25;13.90;99.90
47961;DHT22;33721;48.852;9.936;2022-09-09T06:38:51;14.20;99.90
47961;DHT22;33721;48.852;9.936;2022-09-09T06:41:18;14.40;99.90
47961;DHT22;33721;48.852;9.936;2022-09-09T06:43:45;14.60;99.90
47961;DHT22;33721;48.852;9.936;2022-09-09T06:46:19;14.80;99.90
47961;DHT22;33721;48.852;9.936;2022-09-09T06:48:45;15.00;99.90
47961;DHT22;33721;48.852;9.936;2022-09-09T06:51:14;15.10;99.90
47961;DHT22;33721;48.852;9.936;2022-09-09T06:53:41;15.20;99.90
47961;DHT22;33721;48.852;9.936;2022-09-09T06:58:42;15.40;99.90
47961;DHT22;33721;48.852;9.936;2022-09-09T07:01:08;15.50;99.90
47961;DHT22;33721;48.852;9.936;2022-09-09T07:03:35;15.50;99.90
47961;DHT22;33721;48.852;9.936;2022-09-09T07:06:01;15.60;99.90
47961;DHT22;33721;48.852;9.936;2022-09-09T07:08:27;15.60;99.90
47961;DHT22;33721;48.852;9.936;2022-09-09T07:10:53;15.70;99.90
47961;DHT22;33721;48.852;9.936;2022-09-09T07:13:25;15.80;99.90
47961;DHT22;33721;48.852;9.936;2022-09-09T07:15:52;15.90;99.90
47961;DHT22;33721;48.852;9.936;2022-09-09T07:18:19;16.00;99.90
47961;DHT22;33721;48.852;9.936;2022-09-09T07:20:53;16.00;99.90
47961;DHT22;33721;48.852;9.936;2022-09-09T07:23:19;16.10;99.90
47961;DHT22;33721;48.852;9.936;2022-09-09T07:25:46;16.10;99.90
47961;DHT22;33721;48.852;9.936;2022-09-09T07:28:13;16.30;99.90
47961;DHT22;33721;48.852;9.936;2022-09-09T07:30:39;16.40;99.90
47961;DHT22;33721;48.852;9.936;2022-09-09T07:33:05;16.50;99.90
47961;DHT22;33721;48.852;9.936;2022-09-09T07:35:31;16.70;99.90
47961;DHT22;33721;48.852;9.936;2022-09-09T07:37:57;16.60;99.90
47961;DHT22;33721;48.852;9.936;2022-09-09T07:40:24;16.70;99.90
47961;DHT22;33721;48.852;9.936;2022-09-09T07:42:49;16.70;99.90
47961;DHT22;33721;48.852;9.936;2022-09-09T07:45:15;16.80;99.90
47961;DHT22;33721;48.852;9.936;2022-09-09T07:47:41;16.90;99.90
47961;DHT22;33721;48.852;9.936;2022-09-09T07:50:09;17.00;99.90
47961;DHT22;33721;48.852;9.936;2022-09-09T07:52:35;17.20;99.90
47961;DHT22;33721;48.852;9.936;2022-09-09T07:55:01;17.30;99.90
47961;DHT22;33721;48.852;9.936;2022-09-09T07:57:28;17.40;99.90
47961;DHT22;33721;48.852;9.936;2022-09-09T07:59:56;17.40;99.90
47961;DHT22;33721;48.852;9.936;2022-09-09T08:02:25;17.50;99.90
47961;DHT22;33721;48.852;9.936;2022-09-09T08:04:53;17.50;99.90
47961;DHT22;33721;48.852;9.936;2022-09-09T08:07:18;17.50;99.90
47961;DHT22;33721;48.852;9.936;2022-09-09T08:09:46;17.50;99.90
47961;DHT22;33721;48.852;9.936;2022-09-09T08:12:12;17.70;99.90
47961;DHT22;33721;48.852;9.936;2022-09-09T08:14:38;17.80;99.90
47961;DHT22;33721;48.852;9.936;2022-09-09T08:17:05;18.00;99.90
47961;DHT22;33721;48.852;9.936;2022-09-09T08:19:31;18.20;99.90
47961;DHT22;33721;48.852;9.936;2022-09-09T08:21:59;18.50;99.90
47961;DHT22;33721;48.852;9.936;2022-09-09T08:24:27;18.40;99.90
47961;DHT22;33721;48.852;9.936;2022-09-09T08:26:53;18.30;99.90
47961;DHT22;33721;48.852;9.936;2022-09-09T08:29:19;18.20;99.90
47961;DHT22;33721;48.852;9.936;2022-09-09T08:31:47;18.20;99.90
47961;DHT22;33721;48.852;9.936;2022-09-09T08:34:13;18.20;99.90
47961;DHT22;33721;48.852;9.936;2022-09-09T08:36:44;18.50;99.90
47961;DHT22;33721;48.852;9.936;2022-09-09T08:39:11;18.80;99.90
47961;DHT22;33721;48.852;9.936;2022-09-09T08:50:29;18.70;99.90
47961;DHT22;33721;48.852;9.936;2022-09-09T08:56:09;19.00;99.90
47961;DHT22;33721;48.852;9.936;2022-09-09T08:58:48;19.00;99.90
47961;DHT22;33721;48.852;9.936;2022-09-09T09:04:21;18.70;99.90
47961;DHT22;33721;48.852;9.936;2022-09-09T09:10:00;19.20;99.90
47961;DHT22;33721;48.852;9.936;2022-09-09T09:12:35;19.30;99.90
47961;DHT22;33721;48.852;9.936;2022-09-09T09:15:01;19.20;99.90
47961;DHT22;33721;48.852;9.936;2022-09-09T09:17:31;19.40;99.90
47961;DHT22;33721;48.852;9.936;2022-09-09T09:19:58;19.30;99.90
47961;DHT22;33721;48.852;9.936;2022-09-09T09:22:47;19.50;99.90
47961;DHT22;33721;48.852;9.936;2022-09-09T09:25:23;19.90;99.90
47961;DHT22;33721;48.852;9.936;2022-09-09T09:28:18;20.10;99.90
47961;DHT22;33721;48.852;9.936;2022-09-09T09:30:55;19.80;99.90
47961;DHT22;33721;48.852;9.936;2022-09-09T09:36:07;19.90;99.90
47961;DHT22;33721;48.852;9.936;2022-09-09T09:38:35;20.20;99.90
47961;DHT22;33721;48.852;9.936;2022-09-09T09:41:01;20.30;99.90
47961;DHT22;33721;48.852;9.936;2022-09-09T09:43:35;20.30;99.90
47961;DHT22;33721;48.852;9.936;2022-09-09T09:46:05;20.20;99.90
47961;DHT22;33721;48.852;9.936;2022-09-09T09:48:42;19.90;99.90
47961;DHT22;33721;48.852;9.936;2022-09-09T09:51:10;20.10;99.90
47961;DHT22;33721;48.852;9.936;2022-09-09T09:53:38;20.10;99.90
47961;DHT22;33721;48.852;9.936;2022-09-09T09:56:06;20.20;99.90
47961;DHT22;33721;48.852;9.936;2022-09-09T10:01:04;20.10;99.90
47961;DHT22;33721;48.852;9.936;2022-09-09T10:03:32;20.20;99.90
47961;DHT22;33721;48.852;9.936;2022-09-09T10:05:58;19.90;99.90
47961;DHT22;33721;48.852;9.936;2022-09-09T10:08:25;19.60;99.90
47961;DHT22;33721;48.852;9.936;2022-09-09T10:11:28;19.40;99.90
47961;DHT22;33721;48.852;9.936;2022-09-09T10:14:08;19.30;99.90
47961;DHT22;33721;48.852;9.936;2022-09-09T10:17:06;19.30;99.90
47961;DHT22;33721;48.852;9.936;2022-09-09T10:19:36;19.40;99.90
47961;DHT22;33721;48.852;9.936;2022-09-09T10:22:27;19.50;99.90
47961;DHT22;33721;48.852;9.936;2022-09-09T10:30:09;19.80;99.90
47961;DHT22;33721;48.852;9.936;2022-09-09T10:32:49;19.60;99.90
47961;DHT22;33721;48.852;9.936;2022-09-09T10:38:34;19.90;99.90
47961;DHT22;33721;48.852;9.936;2022-09-09T10:51:20;20.10;99.90
47961;DHT22;33721;48.852;9.936;2022-09-09T10:56:42;20.10;99.90
47961;DHT22;33721;48.852;9.936;2022-09-09T10:59:20;20.10;99.90
47961;DHT22;33721;48.852;9.936;2022-09-09T11:01:56;20.40;99.90
47961;DHT22;33721;48.852;9.936;2022-09-09T11:04:42;20.20;99.90
47961;DHT22;33721;48.852;9.936;2022-09-09T11:07:11;20.50;99.90
47961;DHT22;33721;48.852;9.936;2022-09-09T11:09:42;20.70;99.90
47961;DHT22;33721;48.852;9.936;2022-09-09T11:12:15;20.60;99.90
47961;DHT22;33721;48.852;9.936;2022-09-09T11:14:47;20.60;99.90
47961;DHT22;33721;48.852;9.936;2022-09-09T11:17:26;20.90;99.90
47961;DHT22;33721;48.852;9.936;2022-09-09T11:19:54;21.30;99.90
47961;DHT22;33721;48.852;9.936;2022-09-09T11:23:08;21.30;99.90
47961;DHT22;33721;48.852;9.936;2022-09-09T11:25:44;20.80;99.90
47961;DHT22;33721;48.852;9.936;2022-09-09T11:31:30;20.70;99.90
47961;DHT22;33721;48.852;9.936;2022-09-09T11:44:41;21.60;99.90
47961;DHT22;33721;48.852;9.936;2022-09-09T11:47:26;22.40;99.90
47961;DHT22;33721;48.852;9.936;2022-09-09T11:50:56;22.30;99.20
47961;DHT22;33721;48.852;9.936;2022-09-09T11:53:21;21.70;99.90
47961;DHT22;33721;48.852;9.936;2022-09-09T11:55:59;21.40;99.70
47961;DHT22;33721;48.852;9.936;2022-09-09T11:58:26;21.10;99.90
47961;DHT22;33721;48.852;9.936;2022-09-09T12:00:54;21.20;99.90
47961;DHT22;33721;48.852;9.936;2022-09-09T12:03:46;21.20;99.90
47961;DHT22;33721;48.852;9.936;2022-09-09T12:06:31;21.10;99.90
47961;DHT22;33721;48.852;9.936;2022-09-09T12:11:50;21.60;99.70
47961;DHT22;33721;48.852;9.936;2022-09-09T12:14:34;22.00;98.90
47961;DHT22;33721;48.852;9.936;2022-09-09T12:17:18;22.20;98.30
47961;DHT22;33721;48.852;9.936;2022-09-09T12:19:44;21.80;98.00
47961;DHT22;33721;48.852;9.936;2022-09-09T12:22:35;22.00;99.50
47961;DHT22;33721;48.852;9.936;2022-09-09T12:28:17;22.60;98.20
47961;DHT22;33721;48.852;9.936;2022-09-09T12:31:06;22.20;97.60
47961;DHT22;33721;48.852;9.936;2022-09-09T12:33:36;21.80;96.00
47961;DHT22;33721;48.852;9.936;2022-09-09T12:36:03;20.30;99.90
47961;DHT22;33721;48.852;9.936;2022-09-09T12:38:34;19.10;99.90
47961;DHT22;33721;48.852;9.936;2022-09-09T12:41:01;18.40;99.90
47961;DHT22;33721;48.852;9.936;2022-09-09T12:43:27;18.00;99.90
47961;DHT22;33721;48.852;9.936;2022-09-09T12:46:03;17.80;99.90
47961;DHT22;33721;48.852;9.936;2022-09-09T12:48:40;17.80;99.90
47961;DHT22;33721;48.852;9.936;2022-09-09T12:51:27;17.90;99.90
47961;DHT22;33721;48.852;9.936;2022-09-09T12:53:54;18.00;99.90
47961;DHT22;33721;48.852;9.936;2022-09-09T12:56:23;18.10;99.90
47961;DHT22;33721;48.852;9.936;2022-09-09T12:58:53;18.60;99.90
47961;DHT22;33721;48.852;9.936;2022-09-09T13:01:28;19.50;99.90
47961;DHT22;33721;48.852;9.936;2022-09-09T13:03:55;20.40;99.90
47961;DHT22;33721;48.852;9.936;2022-09-09T13:06:26;20.70;99.90
47961;DHT22;33721;48.852;9.936;2022-09-09T13:08:53;20.70;99.90
47961;DHT22;33721;48.852;9.936;2022-09-09T13:11:41;21.10;99.90
47961;DHT22;33721;48.852;9.936;2022-09-09T13:14:18;21.50;99.90
47961;DHT22;33721;48.852;9.936;2022-09-09T13:17:01;21.00;99.90
47961;DHT22;33721;48.852;9.936;2022-09-09T13:19:37;21.00;99.90
47961;DHT22;33721;48.852;9.936;2022-09-09T13:22:20;21.40;99.90
47961;DHT22;33721;48.852;9.936;2022-09-09T13:24:46;21.60;99.90
47961;DHT22;33721;48.852;9.936;2022-09-09T13:28:02;21.60;99.90
47961;DHT22;33721;48.852;9.936;2022-09-09T13:30:54;21.10;99.90
47961;DHT22;33721;48.852;9.936;2022-09-09T13:33:22;20.70;99.90
47961;DHT22;33721;48.852;9.936;2022-09-09T13:35:56;20.80;99.90
47961;DHT22;33721;48.852;9.936;2022-09-09T13:38:23;21.20;99.90
47961;DHT22;33721;48.852;9.936;2022-09-09T13:41:01;21.30;99.90
47961;DHT22;33721;48.852;9.936;2022-09-09T13:43:31;21.30;99.90
47961;DHT22;33721;48.852;9.936;2022-09-09T13:46:01;21.60;99.90
47961;DHT22;33721;48.852;9.936;2022-09-09T13:48:27;21.50;99.90
47961;DHT22;33721;48.852;9.936;2022-09-09T13:50:58;21.30;99.90
47961;DHT22;33721;48.852;9.936;2022-09-09T13:53:24;21.20;99.90
47961;DHT22;33721;48.852;9.936;2022-09-09T13:55:50;21.40;99.90
47961;DHT22;33721;48.852;9.936;2022-09-09T13:58:17;21.70;99.90
47961;DHT22;33721;48.852;9.936;2022-09-09T14:00:45;22.00;99.90
47961;DHT22;33721;48.852;9.936;2022-09-09T14:03:11;22.00;99.90
47961;DHT22;33721;48.852;9.936;2022-09-09T14:05:37;22.00;99.90
47961;DHT22;33721;48.852;9.936;2022-09-09T14:08:04;21.90;99.90
47961;DHT22;33721;48.852;9.936;2022-09-09T14:10:31;22.00;99.90
47961;DHT22;33721;48.852;9.936;2022-09-09T14:12:57;22.20;99.90
47961;DHT22;33721;48.852;9.936;2022-09-09T14:15:23;22.20;99.90
47961;DHT22;33721;48.852;9.936;2022-09-09T14:17:48;21.90;98.50
47961;DHT22;33721;48.852;9.936;2022-09-09T14:20:14;21.80;99.90
47961;DHT22;33721;48.852;9.936;2022-09-09T14:22:42;21.50;99.90
47961;DHT22;33721;48.852;9.936;2022-09-09T14:25:09;21.60;99.90
47961;DHT22;33721;48.852;9.936;2022-09-09T14:27:35;21.60;99.90
47961;DHT22;33721;48.852;9.936;2022-09-09T14:30:00;21.20;99.90
47961;DHT22;33721;48.852;9.936;2022-09-09T14:32:26;20.90;99.90
47961;DHT22;33721;48.852;9.936;2022-09-09T14:34:52;20.60;99.90
47961;DHT22;33721;48.852;9.936;2022-09-09T14:37:18;20.40;99.90
47961;DHT22;33721;48.852;9.936;2022-09-09T14:39:44;20.60;99.90
47961;DHT22;33721;48.852;9.936;2022-09-09T14:42:13;20.90;99.90
47961;DHT22;33721;48.852;9.936;2022-09-09T14:44:39;21.00;99.90
47961;DHT22;33721;48.852;9.936;2022-09-09T14:47:05;20.90;99.90
47961;DHT22;33721;48.852;9.936;2022-09-09T14:49:31;20.90;99.90
47961;DHT22;33721;48.852;9.936;2022-09-09T14:51:57;21.00;99.90
47961;DHT22;33721;48.852;9.936;2022-09-09T14:54:22;21.40;99.90
47961;DHT22;33721;48.852;9.936;2022-09-09T14:56:48;21.50;99.90
47961;DHT22;33721;48.852;9.936;2022-09-09T14:59:14;21.60;99.90
47961;DHT22;33721;48.852;9.936;2022-09-09T15:01:40;21.50;99.90
47961;DHT22;33721;48.852;9.936;2022-09-09T15:04:06;21.20;99.90
47961;DHT22;33721;48.852;9.936;2022-09-09T15:06:34;21.10;99.90
47961;DHT22;33721;48.852;9.936;2022-09-09T15:09:02;21.10;99.90
47961;DHT22;33721;48.852;9.936;2022-09-09T15:11:30;21.00;99.90
47961;DHT22;33721;48.852;9.936;2022-09-09T15:13:57;21.00;99.90
47961;DHT22;33721;48.852;9.936;2022-09-09T15:16:26;20.90;99.90
47961;DHT22;33721;48.852;9.936;2022-09-09T15:18:54;20.80;99.90
47961;DHT22;33721;48.852;9.936;2022-09-09T15:21:22;20.90;99.90
47961;DHT22;33721;48.852;9.936;2022-09-09T15:23:48;20.70;99.90
47961;DHT22;33721;48.852;9.936;2022-09-09T15:26:14;20.60;99.90
47961;DHT22;33721;48.852;9.936;2022-09-09T15:28:40;20.60;99.50
47961;DHT22;33721;48.852;9.936;2022-09-09T15:31:16;20.60;99.20
47961;DHT22;33721;48.852;9.936;2022-09-09T15:33:52;20.50;99.90
47961;DHT22;33721;48.852;9.936;2022-09-09T15:36:26;20.50;99.60
47961;DHT22;33721;48.852;9.936;2022-09-09T15:38:52;20.20;99.40
47961;DHT22;33721;48.852;9.936;2022-09-09T15:41:20;20.00;98.90
47961;DHT22;33721;48.852;9.936;2022-09-09T15:43:47;20.20;99.70
47961;DHT22;33721;48.852;9.936;2022-09-09T15:48:43;20.30;99.40
47961;DHT22;33721;48.852;9.936;2022-09-09T15:51:12;20.40;98.30
47961;DHT22;33721;48.852;9.936;2022-09-09T15:53:39;20.40;99.90
47961;DHT22;33721;48.852;9.936;2022-09-09T15:56:08;20.50;99.40
47961;DHT22;33721;48.852;9.936;2022-09-09T15:58:35;20.40;98.50
47961;DHT22;33721;48.852;9.936;2022-09-09T16:01:08;20.30;98.40
47961;DHT22;33721;48.852;9.936;2022-09-09T16:03:35;20.20;99.10
47961;DHT22;33721;48.852;9.936;2022-09-09T16:06:02;20.20;98.40
47961;DHT22;33721;48.852;9.936;2022-09-09T16:08:46;20.10;99.00
47961;DHT22;33721;48.852;9.936;2022-09-09T16:11:20;20.20;98.00
47961;DHT22;33721;48.852;9.936;2022-09-09T16:13:49;20.10;99.20
47961;DHT22;33721;48.852;9.936;2022-09-09T16:16:16;20.00;99.90
47961;DHT22;33721;48.852;9.936;2022-09-09T16:18:46;19.80;98.90
47961;DHT22;33721;48.852;9.936;2022-09-09T16:23:43;19.50;98.50
47961;DHT22;33721;48.852;9.936;2022-09-09T16:26:14;19.50;98.10
47961;DHT22;33721;48.852;9.936;2022-09-09T16:28:40;19.40;99.70
47961;DHT22;33721;48.852;9.936;2022-09-09T16:31:24;19.30;99.30
47961;DHT22;33721;48.852;9.936;2022-09-09T16:33:51;19.30;99.10
47961;DHT22;33721;48.852;9.936;2022-09-09T16:36:22;19.30;98.00
47961;DHT22;33721;48.852;9.936;2022-09-09T16:38:51;19.20;98.10
47961;DHT22;33721;48.852;9.936;2022-09-09T16:41:17;19.20;98.00
47961;DHT22;33721;48.852;9.936;2022-09-09T16:43:44;19.10;98.80
47961;DHT22;33721;48.852;9.936;2022-09-09T16:46:17;19.10;98.50
47961;DHT22;33721;48.852;9.936;2022-09-09T16:48:45;19.00;99.20
47961;DHT22;33721;48.852;9.936;2022-09-09T16:51:17;18.90;99.70
47961;DHT22;33721;48.852;9.936;2022-09-09T16:53:43;18.80;99.70
47961;DHT22;33721;48.852;9.936;2022-09-09T16:56:21;18.70;99.70
47961;DHT22;33721;48.852;9.936;2022-09-09T16:58:54;18.70;99.90
47961;DHT22;33721;48.852;9.936;2022-09-09T17:01:25;18.60;99.80
47961;DHT22;33721;48.852;9.936;2022-09-09T17:03:55;18.60;99.60
47961;DHT22;33721;48.852;9.936;2022-09-09T17:06:21;18.70;99.70
47961;DHT22;33721;48.852;9.936;2022-09-09T17:08:54;18.70;99.60
47961;DHT22;33721;48.852;9.936;2022-09-09T17:11:20;18.70;99.90
47961;DHT22;33721;48.852;9.936;2022-09-09T17:13:46;18.70;99.90
47961;DHT22;33721;48.852;9.936;2022-09-09T17:16:14;18.70;99.90
47961;DHT22;33721;48.852;9.936;2022-09-09T17:18:40;18.70;99.90
47961;DHT22;33721;48.852;9.936;2022-09-09T17:21:09;18.70;99.90
47961;DHT22;33721;48.852;9.936;2022-09-09T17:23:36;18.60;99.90
47961;DHT22;33721;48.852;9.936;2022-09-09T17:26:05;18.60;99.90
47961;DHT22;33721;48.852;9.936;2022-09-09T17:28:31;18.60;99.90
47961;DHT22;33721;48.852;9.936;2022-09-09T17:31:00;18.60;99.90
47961;DHT22;33721;48.852;9.936;2022-09-09T17:33:32;18.50;99.90
47961;DHT22;33721;48.852;9.936;2022-09-09T17:36:05;18.40;99.90
47961;DHT22;33721;48.852;9.936;2022-09-09T17:38:32;18.30;99.90
47961;DHT22;33721;48.852;9.936;2022-09-09T17:41:02;18.20;99.90
47961;DHT22;33721;48.852;9.936;2022-09-09T17:43:28;18.00;99.90
47961;DHT22;33721;48.852;9.936;2022-09-09T17:45:54;18.00;99.90